createdAt,value
2023-05-01T00:00:05.677Z,123.87
2023-05-01T00:01:05.486Z,123.09
2023-05-01T00:02:05.490Z,124.06
2023-05-01T00:03:05.573Z,122.09
2023-05-01T00:04:05.641Z,121.81
2023-05-01T00:05:05.614Z,119.94
2023-05-01T00:06:05.598Z,117.49
2023-05-01T00:07:05.545Z,119.37
2023-05-01T00:08:05.545Z,123.27
2023-05-01T00:09:05.594Z,122.99
2023-05-01T00:10:05.592Z,124.55
2023-05-01T00:11:05.619Z,126.31
2023-05-01T00:12:05.620Z,122.74
2023-05-01T00:13:05.621Z,128.23
2023-05-01T00:14:05.650Z,121.19
2023-05-01T00:15:05.691Z,123.46
2023-05-01T00:16:05.758Z,121.20
2023-05-01T00:17:05.728Z,118.79
2023-05-01T00:18:05.750Z,118.81
2023-05-01T00:19:05.763Z,127.06
2023-05-01T00:20:05.763Z,124.63
2023-05-01T00:21:05.773Z,124.20
2023-05-01T00:22:05.768Z,121.87
2023-05-01T00:23:05.771Z,119.12
2023-05-01T00:24:05.803Z,121.82
2023-05-01T00:25:05.799Z,119.65
2023-05-01T00:26:05.810Z,115.65
2023-05-01T00:27:05.830Z,119.78
2023-05-01T00:28:05.804Z,122.11
2023-05-01T00:29:05.816Z,121.33
2023-05-01T00:30:05.892Z,119.55
2023-05-01T00:31:05.879Z,118.89
2023-05-01T00:32:05.945Z,118.43
2023-05-01T00:33:05.910Z,118.66
2023-05-01T00:34:05.866Z,119.68
2023-05-01T00:35:05.844Z,120.33
2023-05-01T00:36:05.843Z,123.98
2023-05-01T00:37:05.838Z,123.51
2023-05-01T00:38:05.818Z,127.12
2023-05-01T00:39:05.796Z,124.57
2023-05-01T00:40:05.769Z,122.51
2023-05-01T00:41:05.751Z,126.79
2023-05-01T00:42:06.456Z,126.76
2023-05-01T00:43:05.745Z,127.30
2023-05-01T00:44:05.738Z,124.54
2023-05-01T00:45:05.713Z,124.82
2023-05-01T00:46:05.817Z,123.99
2023-05-01T00:47:05.702Z,122.75
2023-05-01T00:48:05.711Z,119.17
2023-05-01T00:49:05.704Z,119.59
2023-05-01T00:50:05.671Z,119.75
2023-05-01T00:51:05.656Z,119.80
2023-05-01T00:52:05.654Z,120.36
2023-05-01T00:53:05.646Z,122.82
2023-05-01T00:54:05.644Z,122.11
2023-05-01T00:55:05.666Z,120.17
2023-05-01T00:56:05.629Z,122.08
2023-05-01T00:57:05.627Z,121.34
2023-05-01T00:58:05.671Z,120.50
2023-05-01T00:59:05.616Z,121.03
2023-05-01T01:00:05.602Z,119.24
2023-05-01T01:01:05.656Z,114.04
2023-05-01T01:02:05.594Z,113.84
2023-05-01T01:03:05.586Z,113.73
2023-05-01T01:04:05.612Z,119.37
2023-05-01T01:05:05.558Z,121.31
2023-05-01T01:06:05.569Z,119.90
2023-05-01T01:07:05.540Z,122.78
2023-05-01T01:08:05.563Z,120.90
2023-05-01T01:09:05.531Z,122.06
2023-05-01T01:10:05.532Z,115.80
2023-05-01T01:11:05.503Z,120.79
2023-05-01T01:12:05.506Z,112.57
2023-05-01T01:13:05.501Z,113.48
2023-05-01T01:14:05.488Z,117.31
2023-05-01T01:15:05.483Z,115.65
2023-05-01T01:16:05.475Z,116.37
2023-05-01T01:17:05.507Z,112.56
2023-05-01T01:18:05.573Z,115.06
2023-05-01T01:19:05.508Z,116.36
2023-05-01T01:20:05.540Z,117.27
2023-05-01T01:21:05.604Z,117.68
2023-05-01T01:22:05.552Z,116.70
2023-05-01T01:23:05.575Z,118.20
2023-05-01T01:24:05.616Z,116.62
2023-05-01T01:25:05.610Z,112.78
2023-05-01T01:26:05.612Z,111.78
2023-05-01T01:27:05.630Z,110.18
2023-05-01T01:28:05.643Z,115.73
2023-05-01T01:29:05.650Z,111.45
2023-05-01T01:30:05.663Z,112.09
2023-05-01T01:31:05.719Z,111.53
2023-05-01T01:32:05.695Z,108.04
2023-05-01T01:33:05.731Z,110.73
2023-05-01T01:34:05.692Z,104.34
2023-05-01T01:35:05.722Z,111.83
2023-05-01T01:36:05.742Z,110.61
2023-05-01T01:37:05.755Z,108.41
2023-05-01T01:38:05.775Z,110.08
2023-05-01T01:39:05.786Z,110.93
2023-05-01T01:40:05.798Z,105.28
2023-05-01T01:41:05.843Z,108.10
2023-05-01T01:42:05.826Z,112.65
2023-05-01T01:43:05.845Z,114.23
2023-05-01T01:44:05.882Z,112.49
2023-05-01T01:45:05.898Z,115.94
2023-05-01T01:46:05.934Z,119.52
2023-05-01T01:47:05.921Z,117.55
2023-05-01T01:48:05.986Z,114.40
2023-05-01T01:49:05.936Z,114.55
2023-05-01T01:50:05.968Z,117.67
2023-05-01T01:51:05.971Z,117.50
2023-05-01T01:52:06.071Z,117.77
2023-05-01T01:53:05.968Z,117.92
2023-05-01T01:54:06.028Z,116.72
2023-05-01T01:55:06.007Z,113.38
2023-05-01T01:56:05.966Z,114.63
2023-05-01T01:57:05.972Z,113.50
2023-05-01T01:58:05.953Z,110.37
2023-05-01T01:59:06.034Z,110.39
2023-05-01T02:00:05.940Z,105.71
2023-05-01T02:01:05.959Z,110.32
2023-05-01T02:02:05.990Z,113.82
2023-05-01T02:03:06.080Z,106.99
2023-05-01T02:04:05.988Z,108.01
2023-05-01T02:05:05.931Z,108.81
2023-05-01T02:06:06.006Z,112.13
2023-05-01T02:07:05.985Z,112.78
2023-05-01T02:08:06.019Z,109.75
2023-05-01T02:09:06.005Z,110.26
2023-05-01T02:10:06.035Z,107.29
2023-05-01T02:11:06.030Z,110.34
2023-05-01T02:12:06.029Z,105.75
2023-05-01T02:13:06.045Z,96.85
2023-05-01T02:14:06.076Z,98.43
2023-05-01T02:15:06.079Z,109.20
2023-05-01T02:16:06.107Z,108.19
2023-05-01T02:17:06.088Z,102.33
2023-05-01T02:18:06.143Z,97.40
2023-05-01T02:19:06.107Z,101.29
2023-05-01T02:20:06.116Z,102.80
2023-05-01T02:21:06.136Z,102.75
2023-05-01T02:22:06.152Z,100.45
2023-05-01T02:23:06.149Z,100.86
2023-05-01T02:24:06.154Z,101.58
2023-05-01T02:25:06.174Z,103.50
2023-05-01T02:26:06.166Z,98.62
2023-05-01T02:27:06.189Z,102.14
2023-05-01T02:28:06.208Z,104.97
2023-05-01T02:29:06.251Z,101.65
2023-05-01T02:30:06.248Z,98.58
2023-05-01T02:31:06.295Z,96.51
2023-05-01T02:32:06.355Z,100.53
2023-05-01T02:33:06.315Z,97.01
2023-05-01T02:34:06.271Z,103.00
2023-05-01T02:35:06.304Z,100.23
2023-05-01T02:36:06.346Z,99.77
2023-05-01T02:37:06.332Z,102.66
2023-05-01T02:38:06.341Z,102.13
2023-05-01T02:39:06.346Z,103.81
2023-05-01T02:40:06.383Z,103.14
2023-05-01T02:41:06.366Z,102.19
2023-05-01T02:42:06.396Z,94.23
2023-05-01T02:43:06.371Z,99.90
2023-05-01T02:44:06.385Z,98.78
2023-05-01T02:45:06.427Z,100.66
2023-05-01T02:46:06.546Z,100.86
2023-05-01T02:47:06.448Z,96.95
2023-05-01T02:48:06.497Z,98.70
2023-05-01T02:49:06.471Z,98.41
2023-05-01T02:50:06.476Z,99.43
2023-05-01T02:51:06.504Z,100.75
2023-05-01T02:52:06.500Z,97.15
2023-05-01T02:53:06.524Z,98.15
2023-05-01T02:54:06.536Z,100.60
2023-05-01T02:55:06.558Z,97.55
2023-05-01T02:56:06.574Z,94.25
2023-05-01T02:57:06.616Z,95.64
2023-05-01T02:58:06.617Z,100.47
2023-05-01T02:59:06.637Z,98.25
2023-05-01T03:00:06.631Z,98.12
2023-05-01T03:01:06.711Z,95.99
2023-05-01T03:02:06.674Z,96.54
2023-05-01T03:03:06.738Z,99.86
2023-05-01T03:04:06.801Z,102.82
2023-05-01T03:05:06.735Z,103.22
2023-05-01T03:06:06.785Z,103.48
2023-05-01T03:07:06.787Z,100.38
2023-05-01T03:08:06.799Z,101.71
2023-05-01T03:09:06.828Z,101.51
2023-05-01T03:10:06.845Z,101.27
2023-05-01T03:11:06.848Z,99.36
2023-05-01T03:12:06.847Z,99.79
2023-05-01T03:13:06.848Z,103.53
2023-05-01T03:14:06.854Z,104.48
2023-05-01T03:15:06.883Z,102.12
2023-05-01T03:16:06.925Z,98.43
2023-05-01T03:17:06.919Z,101.05
2023-05-01T03:18:07.073Z,102.36
2023-05-01T03:19:06.911Z,105.46
2023-05-01T03:20:06.971Z,105.00
2023-05-01T03:21:06.990Z,105.50
2023-05-01T03:22:06.997Z,104.26
2023-05-01T03:23:07.037Z,102.45
2023-05-01T03:24:07.056Z,101.30
2023-05-01T03:25:07.082Z,100.44
2023-05-01T03:26:07.108Z,104.84
2023-05-01T03:27:07.110Z,103.84
2023-05-01T03:28:07.147Z,102.70
2023-05-01T03:29:07.116Z,104.53
2023-05-01T03:30:07.130Z,104.71
2023-05-01T03:31:07.135Z,106.47
2023-05-01T03:32:07.148Z,105.83
2023-05-01T03:33:07.177Z,101.00
2023-05-01T03:34:07.116Z,103.70
2023-05-01T03:35:07.130Z,103.68
2023-05-01T03:36:07.162Z,103.03
2023-05-01T03:37:07.227Z,104.59
2023-05-01T03:38:07.153Z,105.27
2023-05-01T03:39:07.149Z,109.91
2023-05-01T03:40:07.148Z,107.50
2023-05-01T03:41:07.525Z,108.09
2023-05-01T03:42:07.187Z,108.76
2023-05-01T03:43:07.189Z,113.30
2023-05-01T03:44:07.198Z,114.42
2023-05-01T03:45:07.220Z,113.05
2023-05-01T03:46:07.254Z,115.44
2023-05-01T03:47:07.235Z,117.19
2023-05-01T03:48:07.293Z,117.02
2023-05-01T03:49:07.253Z,118.17
2023-05-01T03:50:07.267Z,115.85
2023-05-01T03:51:07.276Z,115.58
2023-05-01T03:52:07.270Z,118.26
2023-05-01T03:53:07.368Z,115.58
2023-05-01T03:54:07.276Z,117.15
2023-05-01T03:55:07.269Z,118.84
2023-05-01T03:56:07.281Z,117.26
2023-05-01T03:57:07.281Z,117.10
2023-05-01T03:58:07.261Z,117.09
2023-05-01T03:59:07.260Z,117.70
2023-05-01T04:00:07.261Z,115.73
2023-05-01T04:01:07.281Z,118.29
2023-05-01T04:02:07.363Z,118.55
2023-05-01T04:03:07.330Z,119.91
2023-05-01T04:04:07.363Z,119.45
2023-05-01T04:05:07.374Z,117.99
2023-05-01T04:06:07.382Z,119.49
2023-05-01T04:07:07.347Z,121.58
2023-05-01T04:08:07.314Z,121.18
2023-05-01T04:09:07.573Z,123.50
2023-05-01T04:10:07.351Z,122.20
2023-05-01T04:11:07.347Z,122.77
2023-05-01T04:12:07.369Z,123.78
2023-05-01T04:13:07.374Z,126.52
2023-05-01T04:14:07.391Z,123.03
2023-05-01T04:15:07.392Z,123.58
2023-05-01T04:16:07.412Z,123.11
2023-05-01T04:17:07.414Z,122.18
2023-05-01T04:18:07.507Z,124.37
2023-05-01T04:19:07.437Z,121.75
2023-05-01T04:20:07.466Z,120.75
2023-05-01T04:21:07.515Z,121.28
2023-05-01T04:22:07.481Z,118.69
2023-05-01T04:23:07.509Z,121.60
2023-05-01T04:24:07.550Z,125.69
2023-05-01T04:25:07.657Z,125.58
2023-05-01T04:26:07.502Z,122.95
2023-05-01T04:27:07.530Z,128.94
2023-05-01T04:28:07.616Z,127.07
2023-05-01T04:29:07.483Z,126.48
2023-05-01T04:30:07.493Z,128.63
2023-05-01T04:31:07.552Z,126.43
2023-05-01T04:32:07.574Z,126.86
2023-05-01T04:33:07.529Z,122.61
2023-05-01T04:34:07.485Z,127.76
2023-05-01T04:35:07.491Z,128.68
2023-05-01T04:36:07.521Z,127.38
2023-05-01T04:37:07.528Z,125.65
2023-05-01T04:38:07.560Z,122.48
2023-05-01T04:39:07.630Z,124.26
2023-05-01T04:40:08.616Z,125.25
2023-05-01T04:41:07.685Z,128.50
2023-05-01T04:42:07.606Z,127.96
2023-05-01T04:43:07.614Z,127.30
2023-05-01T04:44:07.609Z,125.60
2023-05-01T04:45:07.607Z,126.27
2023-05-01T04:46:07.711Z,127.07
2023-05-01T04:47:07.678Z,127.54
2023-05-01T04:48:07.674Z,124.21
2023-05-01T04:49:07.588Z,127.16
2023-05-01T04:50:07.578Z,126.80
2023-05-01T04:51:07.571Z,131.86
2023-05-01T04:52:07.582Z,129.75
2023-05-01T04:53:07.580Z,131.42
2023-05-01T04:54:07.576Z,126.60
2023-05-01T04:55:07.572Z,130.72
2023-05-01T04:56:07.580Z,131.67
2023-05-01T04:57:07.589Z,128.05
2023-05-01T04:58:07.582Z,125.71
2023-05-01T04:59:07.593Z,124.98
2023-05-01T05:00:07.589Z,123.51
2023-05-01T05:01:07.612Z,123.37
2023-05-01T05:02:07.623Z,125.56
2023-05-01T05:03:07.661Z,119.77
2023-05-01T05:04:07.692Z,122.51
2023-05-01T05:05:07.585Z,120.88
2023-05-01T05:06:07.649Z,118.82
2023-05-01T05:07:07.634Z,123.52
2023-05-01T05:08:07.591Z,121.25
2023-05-01T05:09:07.613Z,118.35
2023-05-01T05:10:07.657Z,116.29
2023-05-01T05:11:07.607Z,119.21
2023-05-01T05:12:07.603Z,119.04
2023-05-01T05:13:07.580Z,121.49
2023-05-01T05:14:07.575Z,120.94
2023-05-01T05:15:07.589Z,120.62
2023-05-01T05:16:07.614Z,119.92
2023-05-01T05:17:07.584Z,117.32
2023-05-01T05:18:07.767Z,116.60
2023-05-01T05:19:07.598Z,119.65
2023-05-01T05:20:07.572Z,120.32
2023-05-01T05:21:07.641Z,122.28
2023-05-01T05:22:07.615Z,119.59
2023-05-01T05:23:08.613Z,120.64
2023-05-01T05:24:07.610Z,123.22
2023-05-01T05:25:07.572Z,121.98
2023-05-01T05:26:07.584Z,124.61
2023-05-01T05:27:07.577Z,120.39
2023-05-01T05:28:07.585Z,118.28
2023-05-01T05:29:07.579Z,123.51
2023-05-01T05:30:07.639Z,122.91
2023-05-01T05:31:07.657Z,118.29
2023-05-01T05:32:07.677Z,121.42
2023-05-01T05:33:07.719Z,122.63
2023-05-01T05:34:07.608Z,117.69
2023-05-01T05:35:07.593Z,123.35
2023-05-01T05:36:07.585Z,122.62
2023-05-01T05:37:07.582Z,119.53
2023-05-01T05:38:07.575Z,123.04
2023-05-01T05:39:07.553Z,121.73
2023-05-01T05:40:07.583Z,121.56
2023-05-01T05:41:07.535Z,128.65
2023-05-01T05:42:07.526Z,120.81
2023-05-01T05:43:07.522Z,118.64
2023-05-01T05:44:07.522Z,120.29
2023-05-01T05:45:07.513Z,121.55
2023-05-01T05:46:07.547Z,125.45
2023-05-01T05:47:07.537Z,122.33
2023-05-01T05:48:07.542Z,122.87
2023-05-01T05:49:07.494Z,120.84
2023-05-01T05:50:07.504Z,117.71
2023-05-01T05:51:08.089Z,122.11
2023-05-01T05:52:07.478Z,118.33
2023-05-01T05:53:07.476Z,117.84
2023-05-01T05:54:07.492Z,119.36
2023-05-01T05:55:07.439Z,120.03
2023-05-01T05:56:07.473Z,119.24
2023-05-01T05:57:07.427Z,123.33
2023-05-01T05:58:07.414Z,123.18
2023-05-01T05:59:07.409Z,122.00
2023-05-01T06:00:07.485Z,124.87
2023-05-01T06:01:07.408Z,123.31
2023-05-01T06:02:07.449Z,121.82
2023-05-01T06:03:07.482Z,119.19
2023-05-01T06:04:07.385Z,115.70
2023-05-01T06:05:07.414Z,120.31
2023-05-01T06:06:07.468Z,118.66
2023-05-01T06:07:07.594Z,120.46
2023-05-01T06:08:07.401Z,120.73
2023-05-01T06:09:07.376Z,124.59
2023-05-01T06:10:07.349Z,123.56
2023-05-01T06:11:07.366Z,120.25
2023-05-01T06:12:07.357Z,118.57
2023-05-01T06:13:12.946Z,120.94
2023-05-01T06:14:08.335Z,121.02
2023-05-01T06:15:07.314Z,117.86
2023-05-01T06:16:07.398Z,120.63
2023-05-01T06:17:07.302Z,120.71
2023-05-01T06:18:07.366Z,119.22
2023-05-01T06:19:08.078Z,116.65
2023-05-01T06:20:09.094Z,115.91
2023-05-01T06:21:07.262Z,115.21
2023-05-01T06:22:07.310Z,114.11
2023-05-01T06:23:07.279Z,116.94
2023-05-01T06:24:07.282Z,117.14
2023-05-01T06:25:07.271Z,117.45
2023-05-01T06:26:07.261Z,116.27
2023-05-01T06:27:07.249Z,114.75
2023-05-01T06:28:07.325Z,114.11
2023-05-01T06:29:07.385Z,111.39
2023-05-01T06:30:07.335Z,112.90
2023-05-01T06:31:07.292Z,113.04
2023-05-01T06:32:07.271Z,112.89
2023-05-01T06:33:07.337Z,113.51
2023-05-01T06:34:07.258Z,111.16
2023-05-01T06:35:07.214Z,114.16
2023-05-01T06:36:07.213Z,110.69
2023-05-01T06:37:07.202Z,111.35
2023-05-01T06:38:07.282Z,110.21
2023-05-01T06:39:07.222Z,114.13
2023-05-01T06:40:07.187Z,111.03
2023-05-01T06:41:07.207Z,114.62
2023-05-01T06:42:07.192Z,114.60
2023-05-01T06:43:07.202Z,109.90
2023-05-01T06:44:07.191Z,110.35
2023-05-01T06:45:07.220Z,110.78
2023-05-01T06:46:07.264Z,112.78
2023-05-01T06:47:07.365Z,112.15
2023-05-01T06:48:07.324Z,109.64
2023-05-01T06:49:08.100Z,112.84
2023-05-01T06:50:07.273Z,113.34
2023-05-01T06:51:07.288Z,111.13
2023-05-01T06:52:07.339Z,112.58
2023-05-01T06:53:07.322Z,110.16
2023-05-01T06:54:07.330Z,112.48
2023-05-01T06:55:07.322Z,110.37
2023-05-01T06:56:07.352Z,111.08
2023-05-01T06:57:07.384Z,110.28
2023-05-01T06:58:16.581Z,105.69
2023-05-01T06:59:08.382Z,105.96
2023-05-01T07:00:07.381Z,106.09
2023-05-01T07:01:07.412Z,106.66
2023-05-01T07:02:07.391Z,105.38
2023-05-01T07:03:07.383Z,105.15
2023-05-01T07:04:07.338Z,110.23
2023-05-01T07:05:07.402Z,110.46
2023-05-01T07:06:07.366Z,106.60
2023-05-01T07:07:07.347Z,104.42
2023-05-01T07:08:07.416Z,103.87
2023-05-01T07:09:07.464Z,110.62
2023-05-01T07:10:07.580Z,105.22
2023-05-01T07:11:10.159Z,108.75
2023-05-01T07:12:07.761Z,103.73
2023-05-01T07:13:07.839Z,102.01
2023-05-01T07:14:07.881Z,106.74
2023-05-01T07:15:07.944Z,108.53
2023-05-01T07:16:08.045Z,105.46
2023-05-01T07:17:08.084Z,106.57
2023-05-01T07:18:08.293Z,111.95
2023-05-01T07:19:08.165Z,111.28
2023-05-01T07:20:08.243Z,116.85
2023-05-01T07:21:08.256Z,111.47
2023-05-01T07:22:08.293Z,107.83
2023-05-01T07:23:08.292Z,109.32
2023-05-01T07:24:08.372Z,104.90
2023-05-01T07:25:08.416Z,109.77
2023-05-01T07:26:08.472Z,106.71
2023-05-01T07:27:08.508Z,109.60
2023-05-01T07:28:08.571Z,115.68
2023-05-01T07:29:08.657Z,110.89
2023-05-01T07:30:08.719Z,108.78
2023-05-01T07:31:08.770Z,111.17
2023-05-01T07:32:08.827Z,107.30
2023-05-01T07:33:08.800Z,110.60
2023-05-01T07:34:08.756Z,109.98
2023-05-01T07:35:08.721Z,109.81
2023-05-01T07:36:08.736Z,105.83
2023-05-01T07:37:08.729Z,103.97
2023-05-01T07:38:08.699Z,102.29
2023-05-01T07:39:08.691Z,100.12
2023-05-01T07:40:08.738Z,107.43
2023-05-01T07:41:08.765Z,114.40
2023-05-01T07:42:08.890Z,113.87
2023-05-01T07:43:08.901Z,114.93
2023-05-01T07:44:08.980Z,107.81
2023-05-01T07:45:09.056Z,111.46
2023-05-01T07:46:09.081Z,101.87
2023-05-01T07:47:09.196Z,104.59
2023-05-01T07:48:09.292Z,102.82
2023-05-01T07:49:09.271Z,102.84
2023-05-01T07:50:09.387Z,106.43
2023-05-01T07:51:09.315Z,106.50
2023-05-01T07:52:09.319Z,104.35
2023-05-01T07:53:09.309Z,106.69
2023-05-01T07:54:09.309Z,99.51
2023-05-01T07:55:09.319Z,100.29
2023-05-01T07:56:09.297Z,93.36
2023-05-01T07:57:09.292Z,94.89
2023-05-01T07:58:09.254Z,93.79
2023-05-01T07:59:09.233Z,100.12
2023-05-01T08:00:09.238Z,98.49
2023-05-01T08:01:09.265Z,99.75
2023-05-01T08:02:09.317Z,102.09
2023-05-01T08:03:09.588Z,101.70
2023-05-01T08:04:09.451Z,100.89
2023-05-01T08:05:09.452Z,97.29
2023-05-01T08:06:09.555Z,87.71
2023-05-01T08:07:09.542Z,90.60
2023-05-01T08:08:09.644Z,92.15
2023-05-01T08:09:09.750Z,95.97
2023-05-01T08:10:09.721Z,91.61
2023-05-01T08:11:09.772Z,83.89
2023-05-01T08:12:09.825Z,73.77
2023-05-01T08:13:09.886Z,73.80
2023-05-01T08:14:09.945Z,79.05
2023-05-01T08:15:10.001Z,75.16
2023-05-01T08:16:10.166Z,66.07
2023-05-01T08:17:10.118Z,67.42
2023-05-01T08:18:10.221Z,75.05
2023-05-01T08:19:10.213Z,74.06
2023-05-01T08:20:10.304Z,70.55
2023-05-01T08:21:10.320Z,69.46
2023-05-01T08:22:10.390Z,60.77
2023-05-01T08:23:10.448Z,59.14
2023-05-01T08:24:10.486Z,57.45
2023-05-01T08:25:10.737Z,56.53
2023-05-01T08:26:10.603Z,53.24
2023-05-01T08:27:10.705Z,47.70
2023-05-01T08:28:10.706Z,29.38
2023-05-01T08:29:10.762Z,31.15
2023-05-01T08:30:10.832Z,31.01
2023-05-01T08:31:11.027Z,25.00
2023-05-01T08:32:10.920Z,28.10
2023-05-01T08:33:11.040Z,26.97
2023-05-01T08:34:11.048Z,22.95
2023-05-01T08:35:11.092Z,25.91
2023-05-01T08:36:11.166Z,30.07
2023-05-01T08:37:11.260Z,31.28
2023-05-01T08:38:11.300Z,33.41
2023-05-01T08:39:11.329Z,34.71
2023-05-01T08:40:11.511Z,27.56
2023-05-01T08:41:11.454Z,35.92
2023-05-01T08:42:11.529Z,36.73
2023-05-01T08:43:11.526Z,36.34
2023-05-01T08:44:13.139Z,38.08
2023-05-01T08:45:11.627Z,25.60
2023-05-01T08:46:11.698Z,25.00
2023-05-01T08:47:12.189Z,28.14
2023-05-01T08:48:11.988Z,26.25
2023-05-01T08:49:11.865Z,26.71
2023-05-01T08:50:12.011Z,28.37
2023-05-01T08:51:12.006Z,26.19
2023-05-01T08:52:11.930Z,28.21
2023-05-01T08:53:12.161Z,30.24
2023-05-01T08:54:11.970Z,28.75
2023-05-01T08:55:12.023Z,36.99
2023-05-01T08:56:12.076Z,35.60
2023-05-01T08:57:12.100Z,31.53
2023-05-01T08:58:12.166Z,34.59
2023-05-01T08:59:12.194Z,41.80
2023-05-01T09:00:12.229Z,49.35
2023-05-01T09:01:12.303Z,39.13
2023-05-01T09:02:12.568Z,47.28
2023-05-01T09:03:12.436Z,44.89
2023-05-01T09:04:12.455Z,49.96
2023-05-01T09:05:12.477Z,57.14
2023-05-01T09:06:12.547Z,52.14
2023-05-01T09:07:12.511Z,57.55
2023-05-01T09:08:12.548Z,58.97
2023-05-01T09:09:12.602Z,57.67
2023-05-01T09:10:12.622Z,69.27
2023-05-01T09:11:12.686Z,67.03
2023-05-01T09:12:12.710Z,74.11
2023-05-01T09:13:12.782Z,68.99
2023-05-01T09:14:12.786Z,81.52
2023-05-01T09:15:12.815Z,72.03
2023-05-01T09:16:12.883Z,79.82
2023-05-01T09:17:12.885Z,79.48
2023-05-01T09:18:12.995Z,78.36
2023-05-01T09:19:12.990Z,65.90
2023-05-01T09:20:13.021Z,66.62
2023-05-01T09:21:13.064Z,78.03
2023-05-01T09:22:13.103Z,74.92
2023-05-01T09:23:13.142Z,85.91
2023-05-01T09:24:13.173Z,92.02
2023-05-01T09:25:13.225Z,84.00
2023-05-01T09:26:13.278Z,76.54
2023-05-01T09:27:13.368Z,85.20
2023-05-01T09:28:13.393Z,90.04
2023-05-01T09:29:13.412Z,86.24
2023-05-01T09:30:13.448Z,79.42
2023-05-01T09:31:13.500Z,94.90
2023-05-01T09:32:13.681Z,84.86
2023-05-01T09:33:13.690Z,91.13
2023-05-01T09:34:13.605Z,97.76
2023-05-01T09:35:13.657Z,92.81
2023-05-01T09:36:13.683Z,101.68
2023-05-01T09:37:13.758Z,100.33
2023-05-01T09:38:13.786Z,99.14
2023-05-01T09:39:13.816Z,91.16
2023-05-01T09:40:13.954Z,100.88
2023-05-01T09:41:13.932Z,104.81
2023-05-01T09:42:13.957Z,108.42
2023-05-01T09:43:14.029Z,109.05
2023-05-01T09:44:14.042Z,98.31
2023-05-01T09:45:14.102Z,97.30
2023-05-01T09:46:14.176Z,108.30
2023-05-01T09:47:14.172Z,109.71
2023-05-01T09:48:14.214Z,112.29
2023-05-01T09:49:14.259Z,109.14
2023-05-01T09:50:14.297Z,110.32
2023-05-01T09:51:14.289Z,110.75
2023-05-01T09:52:14.289Z,110.10
2023-05-01T09:53:14.331Z,111.00
2023-05-01T09:54:14.264Z,107.35
2023-05-01T09:55:14.280Z,100.14
2023-05-01T09:56:14.261Z,100.57
2023-05-01T09:57:14.237Z,96.33
2023-05-01T09:58:14.240Z,104.87
2023-05-01T09:59:14.228Z,108.01
2023-05-01T10:00:14.234Z,115.38
2023-05-01T10:01:14.263Z,109.71
2023-05-01T10:02:14.268Z,112.89
2023-05-01T10:03:14.309Z,112.05
2023-05-01T10:04:14.249Z,114.90
2023-05-01T10:05:14.283Z,107.90
2023-05-01T10:06:14.377Z,104.51
2023-05-01T10:07:14.406Z,110.67
2023-05-01T10:08:14.455Z,123.48
2023-05-01T10:09:14.447Z,121.84
2023-05-01T10:10:14.485Z,109.44
2023-05-01T10:11:15.178Z,104.96
2023-05-01T10:12:14.592Z,102.60
2023-05-01T10:13:14.630Z,104.27
2023-05-01T10:14:14.732Z,115.24
2023-05-01T10:15:24.808Z,111.73
2023-05-01T10:16:15.738Z,112.09
2023-05-01T10:17:14.745Z,111.92
2023-05-01T10:18:14.764Z,114.05
2023-05-01T10:19:14.673Z,118.52
2023-05-01T10:20:14.654Z,113.68
2023-05-01T10:21:14.772Z,116.40
2023-05-01T10:22:14.655Z,110.42
2023-05-01T10:23:14.632Z,108.18
2023-05-01T10:24:14.607Z,112.05
2023-05-01T10:25:15.189Z,106.58
2023-05-01T10:26:14.746Z,107.70
2023-05-01T10:27:14.793Z,117.59
2023-05-01T10:28:14.716Z,112.65
2023-05-01T10:29:14.764Z,104.42
2023-05-01T10:30:14.822Z,106.68
2023-05-01T10:31:14.959Z,107.47
2023-05-01T10:32:14.900Z,105.43
2023-05-01T10:33:15.024Z,114.21
2023-05-01T10:34:15.017Z,116.40
2023-05-01T10:35:14.963Z,108.23
2023-05-01T10:36:14.969Z,100.39
2023-05-01T10:37:14.966Z,90.55
2023-05-01T10:38:14.961Z,89.20
2023-05-01T10:39:14.934Z,101.77
2023-05-01T10:40:14.904Z,97.93
2023-05-01T10:41:14.906Z,97.09
2023-05-01T10:42:14.913Z,92.56
2023-05-01T10:43:14.913Z,98.90
2023-05-01T10:44:14.878Z,99.44
2023-05-01T10:45:14.880Z,99.63
2023-05-01T10:46:14.925Z,103.32
2023-05-01T10:47:14.870Z,109.90
2023-05-01T10:48:14.849Z,117.75
2023-05-01T10:49:14.849Z,110.46
2023-05-01T10:50:14.877Z,107.68
2023-05-01T10:51:14.821Z,102.75
2023-05-01T10:52:14.818Z,114.31
2023-05-01T10:53:14.893Z,113.27
2023-05-01T10:54:14.792Z,111.31
2023-05-01T10:55:14.797Z,109.66
2023-05-01T10:56:14.827Z,114.44
2023-05-01T10:57:14.798Z,114.70
2023-05-01T10:58:14.840Z,113.59
2023-05-01T10:59:14.792Z,114.15
2023-05-01T11:00:14.848Z,121.81
2023-05-01T11:01:14.782Z,117.10
2023-05-01T11:02:14.790Z,121.93
2023-05-01T11:03:14.784Z,126.87
2023-05-01T11:04:14.731Z,123.39
2023-05-01T11:05:14.766Z,118.06
2023-05-01T11:06:14.829Z,125.52
2023-05-01T11:07:14.830Z,117.79
2023-05-01T11:08:14.697Z,113.43
2023-05-01T11:09:14.732Z,113.11
2023-05-01T11:10:14.746Z,125.57
2023-05-01T11:11:14.854Z,114.50
2023-05-01T11:12:14.822Z,123.15
2023-05-01T11:13:14.889Z,114.49
2023-05-01T11:14:15.703Z,115.90
2023-05-01T11:15:14.966Z,112.60
2023-05-01T11:16:15.056Z,117.90
2023-05-01T11:17:15.048Z,119.26
2023-05-01T11:18:15.040Z,119.35
2023-05-01T11:19:14.999Z,109.60
2023-05-01T11:20:15.000Z,99.61
2023-05-01T11:21:15.024Z,100.24
2023-05-01T11:22:14.967Z,108.53
2023-05-01T11:23:14.976Z,103.96
2023-05-01T11:24:14.944Z,107.27
2023-05-01T11:25:14.941Z,104.06
2023-05-01T11:26:14.936Z,95.76
2023-05-01T11:27:14.947Z,102.43
2023-05-01T11:28:14.947Z,99.23
2023-05-01T11:29:14.920Z,101.20
2023-05-01T11:30:14.917Z,87.70
2023-05-01T11:31:14.928Z,92.93
2023-05-01T11:32:15.025Z,95.92
2023-05-01T11:33:14.958Z,79.47
2023-05-01T11:34:14.888Z,86.61
2023-05-01T11:35:14.897Z,85.62
2023-05-01T11:36:14.922Z,89.01
2023-05-01T11:37:14.965Z,84.74
2023-05-01T11:38:14.992Z,83.49
2023-05-01T11:39:15.002Z,86.17
2023-05-01T11:40:15.048Z,83.76
2023-05-01T11:41:15.042Z,84.14
2023-05-01T11:42:15.216Z,84.10
2023-05-01T11:43:15.027Z,86.86
2023-05-01T11:44:15.003Z,92.45
2023-05-01T11:45:14.985Z,90.99
2023-05-01T11:46:15.053Z,86.28
2023-05-01T11:47:14.949Z,82.07
2023-05-01T11:48:14.981Z,85.19
2023-05-01T11:49:14.958Z,95.63
2023-05-01T11:50:14.923Z,92.05
2023-05-01T11:51:14.920Z,97.69
2023-05-01T11:52:14.915Z,92.92
2023-05-01T11:53:14.918Z,84.27
2023-05-01T11:54:15.774Z,78.63
2023-05-01T11:55:14.895Z,83.90
2023-05-01T11:56:25.377Z,89.22
2023-05-01T11:57:15.895Z,89.63
2023-05-01T11:58:14.873Z,87.89
2023-05-01T11:59:14.869Z,89.77
2023-05-01T12:00:14.850Z,92.56
2023-05-01T12:01:14.830Z,89.85
2023-05-01T12:02:14.872Z,92.51
2023-05-01T12:03:15.349Z,94.20
2023-05-01T12:04:14.863Z,103.85
2023-05-01T12:05:14.805Z,90.97
2023-05-01T12:06:14.869Z,96.91
2023-05-01T12:07:14.778Z,94.73
2023-05-01T12:08:14.768Z,95.98
2023-05-01T12:09:14.745Z,98.91
2023-05-01T12:10:14.741Z,96.63
2023-05-01T12:11:14.718Z,108.72
2023-05-01T12:12:14.707Z,99.17
2023-05-01T12:13:14.705Z,105.44
2023-05-01T12:14:14.686Z,95.64
2023-05-01T12:15:14.677Z,99.50
2023-05-01T12:16:14.655Z,98.59
2023-05-01T12:17:14.698Z,93.25
2023-05-01T12:18:14.766Z,103.42
2023-05-01T12:19:14.620Z,92.33
2023-05-01T12:20:14.595Z,87.96
2023-05-01T12:21:14.608Z,96.59
2023-05-01T12:22:14.641Z,89.96
2023-05-01T12:23:14.753Z,88.11
2023-05-01T12:24:14.665Z,94.23
2023-05-01T12:25:14.719Z,93.34
2023-05-01T12:26:14.732Z,87.04
2023-05-01T12:27:14.770Z,91.11
2023-05-01T12:28:14.795Z,92.70
2023-05-01T12:29:14.790Z,92.44
2023-05-01T12:30:14.818Z,93.77
2023-05-01T12:31:14.887Z,95.88
2023-05-01T12:32:14.842Z,95.19
2023-05-01T12:33:14.907Z,94.45
2023-05-01T12:34:14.970Z,95.63